createdAt,value
2018-08-20T00:00:01.484Z,1014.26
2018-08-20T00:01:11.120Z,1014.28
2018-08-20T00:02:20.420Z,1014.32
2018-08-20T00:03:30.061Z,1014.31
2018-08-20T00:04:39.584Z,1014.31
2018-08-20T00:05:49.118Z,1014.36
2018-08-20T00:06:58.439Z,1014.38
2018-08-20T00:08:07.767Z,1014.36
2018-08-20T00:09:16.619Z,1014.34
2018-08-20T00:10:25.893Z,1014.35
2018-08-20T00:11:35.212Z,1014.34
2018-08-20T00:12:44.288Z,1014.32
2018-08-20T00:13:53.901Z,1014.32
2018-08-20T00:15:03.040Z,1014.34
2018-08-20T00:16:12.817Z,1014.34
2018-08-20T00:17:22.915Z,1014.36
2018-08-20T00:18:32.583Z,1014.39
2018-08-20T00:19:41.926Z,1014.38
2018-08-20T00:20:51.460Z,1014.42
2018-08-20T00:22:00.548Z,1014.38
2018-08-20T00:23:09.897Z,1014.39
2018-08-20T00:24:19.368Z,1014.38
2018-08-20T00:25:28.687Z,1014.4
2018-08-20T00:26:37.996Z,1014.37
2018-08-20T00:27:46.944Z,1014.32
2018-08-20T00:28:55.969Z,1014.36
2018-08-20T00:30:05.237Z,1014.32
2018-08-20T00:31:14.870Z,1014.32
2018-08-20T00:32:24.265Z,1014.37
2018-08-20T00:33:33.622Z,1014.33
2018-08-20T00:34:42.954Z,1014.37
2018-08-20T00:35:52.693Z,1014.39
2018-08-20T00:37:02.005Z,1014.36
2018-08-20T00:38:11.243Z,1014.41
2018-08-20T00:39:20.272Z,1014.39
2018-08-20T00:40:29.889Z,1014.38
2018-08-20T00:41:39.624Z,1014.42
2018-08-20T00:42:48.724Z,1014.41
2018-08-20T00:43:58.372Z,1014.4
2018-08-20T00:45:07.473Z,1014.41
2018-08-20T00:46:16.990Z,1014.42
2018-08-20T00:47:26.131Z,1014.43
2018-08-20T00:48:35.501Z,1014.46
2018-08-20T00:49:44.881Z,1014.43
2018-08-20T00:50:54.274Z,1014.43
2018-08-20T00:52:03.639Z,1014.46
2018-08-20T00:53:12.965Z,1014.44
2018-08-20T00:54:22.052Z,1014.44
2018-08-20T00:55:31.420Z,1014.42
2018-08-20T00:56:41.340Z,1014.39
2018-08-20T00:57:50.697Z,1014.36
2018-08-20T00:58:59.800Z,1014.37
2018-08-20T01:00:08.663Z,1014.36
2018-08-20T01:01:17.496Z,1014.33
2018-08-20T01:02:27.115Z,1014.3
2018-08-20T01:03:36.304Z,1014.37
2018-08-20T01:04:45.442Z,1014.37
2018-08-20T01:05:55.311Z,1014.41
2018-08-20T01:07:04.454Z,1014.41
2018-08-20T01:08:13.792Z,1014.4
2018-08-20T01:09:22.867Z,1014.38
2018-08-20T01:10:31.984Z,1014.37
2018-08-20T01:11:41.271Z,1014.32
2018-08-20T01:12:50.279Z,1014.31
2018-08-20T01:13:59.343Z,1014.25
2018-08-20T01:15:08.990Z,1014.24
2018-08-20T01:16:18.317Z,1014.26
2018-08-20T01:17:27.980Z,1014.24
2018-08-20T01:18:37.502Z,1014.26
2018-08-20T01:19:47.541Z,1014.24
2018-08-20T01:20:57.389Z,1014.25
2018-08-20T01:22:06.667Z,1014.22
2018-08-20T01:23:15.941Z,1014.25
2018-08-20T01:24:25.217Z,1014.24
2018-08-20T01:25:34.865Z,1014.25
2018-08-20T01:26:44.194Z,1014.21
2018-08-20T01:27:53.474Z,1014.19
2018-08-20T01:29:03.007Z,1014.23
2018-08-20T01:30:12.801Z,1014.18
2018-08-20T01:31:22.156Z,1014.19
2018-08-20T01:32:31.138Z,1014.18
2018-08-20T01:33:40.189Z,1014.16
2018-08-20T01:34:49.767Z,1014.15
2018-08-20T01:35:59.096Z,1014.16
2018-08-20T01:37:08.730Z,1014.16
2018-08-20T01:38:17.758Z,1014.19
2018-08-20T01:39:27.289Z,1014.18
2018-08-20T01:40:36.653Z,1014.22
2018-08-20T01:41:45.978Z,1014.19
2018-08-20T01:42:56.052Z,1014.23
2018-08-20T01:44:05.739Z,1014.23
2018-08-20T01:45:15.024Z,1014.2
2018-08-20T01:46:24.908Z,1014.2
2018-08-20T01:47:34.033Z,1014.18
2018-08-20T01:48:43.867Z,1014.19
2018-08-20T01:49:52.930Z,1014.16
2018-08-20T01:51:02.233Z,1014.15
2018-08-20T01:52:11.527Z,1014.15
2018-08-20T01:53:21.297Z,1014.11
2018-08-20T01:54:30.571Z,1014.1
2018-08-20T01:55:40.150Z,1014.12
2018-08-20T01:56:49.466Z,1014.13
2018-08-20T01:57:59.088Z,1014.13
2018-08-20T01:59:08.669Z,1014.11
2018-08-20T02:00:18.032Z,1014.11
2018-08-20T02:01:27.681Z,1014.17
2018-08-20T02:02:36.966Z,1014.15
2018-08-20T02:03:46.029Z,1014.14
2018-08-20T02:04:55.352Z,1014.12
2018-08-20T02:06:04.372Z,1014.09
2018-08-20T02:07:13.477Z,1014.1
2018-08-20T02:08:22.406Z,1014.1
2018-08-20T02:09:31.778Z,1014.08
2018-08-20T02:10:41.056Z,1014.05
2018-08-20T02:11:50.185Z,1014.05
2018-08-20T02:12:59.467Z,1014.07
2018-08-20T02:14:08.387Z,1014.01
2018-08-20T02:15:17.951Z,1014
2018-08-20T02:16:26.766Z,1013.99
2018-08-20T02:17:36.052Z,1014
2018-08-20T02:18:45.380Z,1014
2018-08-20T02:19:54.868Z,1014.04
2018-08-20T02:21:04.370Z,1014.01
2018-08-20T02:22:13.666Z,1013.99
2018-08-20T02:23:22.919Z,1014.01
2018-08-20T02:24:32.504Z,1014.03
2018-08-20T02:25:41.795Z,1013.98
2018-08-20T02:26:51.054Z,1014.03
2018-08-20T02:28:00.121Z,1014.05
2018-08-20T02:29:09.400Z,1014.05
2018-08-20T02:30:18.968Z,1014.05
2018-08-20T02:31:27.991Z,1014.09
2018-08-20T02:32:37.767Z,1014.09
2018-08-20T02:33:46.805Z,1014.07
2018-08-20T02:34:56.381Z,1014.05
2018-08-20T02:36:06.187Z,1014.02
2018-08-20T02:37:15.866Z,1014.01
2018-08-20T02:38:25.270Z,1014.02
2018-08-20T02:39:34.895Z,1014.02
2018-08-20T02:40:43.675Z,1014.06
2018-08-20T02:41:52.950Z,1014.03
2018-08-20T02:43:01.964Z,1013.97
2018-08-20T02:44:12.061Z,1013.96
2018-08-20T02:45:21.644Z,1013.93
2018-08-20T02:46:30.721Z,1013.91
2018-08-20T02:47:40.055Z,1013.92
2018-08-20T02:48:49.415Z,1013.88
2018-08-20T02:49:58.351Z,1013.91
2018-08-20T02:51:07.713Z,1013.86
2018-08-20T02:52:17.007Z,1013.88
2018-08-20T02:53:26.874Z,1013.85
2018-08-20T02:54:35.882Z,1013.82
2018-08-20T02:55:45.520Z,1013.79
2018-08-20T02:56:54.852Z,1013.82
2018-08-20T02:58:03.905Z,1013.84
2018-08-20T02:59:13.241Z,1013.81
2018-08-20T03:00:22.579Z,1013.81
2018-08-20T03:01:31.376Z,1013.82
2018-08-20T03:02:40.733Z,1013.79
2018-08-20T03:03:50.252Z,1013.78
2018-08-20T03:04:59.597Z,1013.78
2018-08-20T03:06:09.441Z,1013.81
2018-08-20T03:07:19.338Z,1013.81
2018-08-20T03:08:28.681Z,1013.84
2018-08-20T03:09:38.330Z,1013.8
2018-08-20T03:10:47.892Z,1013.8
2018-08-20T03:11:57.246Z,1013.82
2018-08-20T03:13:06.272Z,1013.83
2018-08-20T03:14:15.674Z,1013.82
2018-08-20T03:15:25.269Z,1013.81
2018-08-20T03:16:34.970Z,1013.79
2018-08-20T03:17:44.643Z,1013.81
2018-08-20T03:18:53.658Z,1013.82
2018-08-20T03:20:03.556Z,1013.84
2018-08-20T03:21:13.233Z,1013.84
2018-08-20T03:22:22.567Z,1013.79
2018-08-20T03:23:32.162Z,1013.75
2018-08-20T03:24:41.573Z,1013.8
2018-08-20T03:25:51.134Z,1013.81
2018-08-20T03:27:00.511Z,1013.81
2018-08-20T03:28:09.852Z,1013.8
2018-08-20T03:29:19.388Z,1013.82
2018-08-20T03:30:28.454Z,1013.83
2018-08-20T03:31:38.283Z,1013.82
2018-08-20T03:32:47.569Z,1013.79
2018-08-20T03:33:57.114Z,1013.84
2018-08-20T03:35:06.514Z,1013.77
2018-08-20T03:36:15.757Z,1013.82
2018-08-20T03:37:25.322Z,1013.81
2018-08-20T03:38:34.572Z,1013.81
2018-08-20T03:39:44.175Z,1013.82
2018-08-20T03:40:54.044Z,1013.8
2018-08-20T03:42:03.396Z,1013.83
2018-08-20T03:43:12.779Z,1013.83
2018-08-20T03:44:21.867Z,1013.83
2018-08-20T03:45:31.135Z,1013.84
2018-08-20T03:46:40.489Z,1013.87
2018-08-20T03:47:50.424Z,1013.91
2018-08-20T03:49:00.105Z,1013.92
2018-08-20T03:50:09.703Z,1013.91
2018-08-20T03:51:19.333Z,1013.97
2018-08-20T03:52:29.267Z,1013.98
2018-08-20T03:53:38.846Z,1014.01
2018-08-20T03:54:48.427Z,1014.06
2018-08-20T03:55:57.497Z,1014.08
2018-08-20T03:57:06.562Z,1014.1
2018-08-20T03:58:15.941Z,1014.15
2018-08-20T03:59:24.778Z,1014.15
2018-08-20T04:00:33.869Z,1014.23
2018-08-20T04:01:42.651Z,1014.18
2018-08-20T04:02:51.458Z,1014.18
2018-08-20T04:04:01.036Z,1014.15
2018-08-20T04:05:10.385Z,1014.2
2018-08-20T04:06:19.974Z,1014.23
2018-08-20T04:07:29.303Z,1014.23
2018-08-20T04:08:38.851Z,1014.25
2018-08-20T04:09:47.987Z,1014.32
2018-08-20T04:10:57.259Z,1014.25
2018-08-20T04:12:06.705Z,1014.3
2018-08-20T04:13:16.506Z,1014.34
2018-08-20T04:14:26.071Z,1014.37
2018-08-20T04:15:35.967Z,1014.33
2018-08-20T04:16:44.990Z,1014.36
2018-08-20T04:17:54.629Z,1014.32
2018-08-20T04:19:03.724Z,1014.38
2018-08-20T04:20:12.724Z,1014.39
2018-08-20T04:21:21.579Z,1014.38
2018-08-20T04:22:30.908Z,1014.35
2018-08-20T04:23:40.269Z,1014.38
2018-08-20T04:24:49.912Z,1014.43
2018-08-20T04:25:59.808Z,1014.35
2018-08-20T04:27:09.153Z,1014.34
2018-08-20T04:28:18.720Z,1014.29
2018-08-20T04:29:28.125Z,1014.28
2018-08-20T04:30:36.939Z,1014.3
2018-08-20T04:31:47.284Z,1014.32
2018-08-20T04:32:56.864Z,1014.36
2018-08-20T04:34:06.416Z,1014.38
2018-08-20T04:35:15.990Z,1014.35
2018-08-20T04:36:25.648Z,1014.37
2018-08-20T04:37:35.986Z,1014.35
2018-08-20T04:38:45.669Z,1014.36
2018-08-20T04:39:55.310Z,1014.33
2018-08-20T04:41:05.088Z,1014.36
2018-08-20T04:42:14.500Z,1014.38
2018-08-20T04:43:24.380Z,1014.38
2018-08-20T04:44:33.937Z,1014.42
2018-08-20T04:45:43.550Z,1014.38
2018-08-20T04:46:52.874Z,1014.39
2018-08-20T04:48:02.726Z,1014.43
2018-08-20T04:49:12.080Z,1014.36
2018-08-20T04:50:22.074Z,1014.4
2018-08-20T04:51:31.551Z,1014.39
2018-08-20T04:52:41.081Z,1014.35
2018-08-20T04:53:50.174Z,1014.38
2018-08-20T04:54:59.806Z,1014.37
2018-08-20T04:56:09.634Z,1014.34
2018-08-20T04:57:18.653Z,1014.36
2018-08-20T04:58:27.668Z,1014.37
2018-08-20T04:59:37.012Z,1014.31
2018-08-20T05:00:47.109Z,1014.33
2018-08-20T05:01:56.396Z,1014.31
2018-08-20T05:03:05.718Z,1014.34
2018-08-20T05:04:15.144Z,1014.34
2018-08-20T05:05:24.885Z,1014.34
2018-08-20T05:06:34.172Z,1014.34
2018-08-20T05:07:43.499Z,1014.36
2018-08-20T05:08:53.038Z,1014.34
2018-08-20T05:10:02.868Z,1014.39
2018-08-20T05:11:12.913Z,1014.38
2018-08-20T05:12:21.967Z,1014.38
2018-08-20T05:13:31.569Z,1014.38
2018-08-20T05:14:41.174Z,1014.39
2018-08-20T05:15:50.555Z,1014.44
2018-08-20T05:17:00.108Z,1014.43
2018-08-20T05:18:09.365Z,1014.46
2018-08-20T05:19:18.897Z,1014.49
2018-08-20T05:20:28.020Z,1014.47
2018-08-20T05:21:36.878Z,1014.52
2018-08-20T05:22:46.619Z,1014.5
2018-08-20T05:23:56.406Z,1014.52
2018-08-20T05:25:05.384Z,1014.5
2018-08-20T05:26:15.129Z,1014.53
2018-08-20T05:27:24.666Z,1014.49
2018-08-20T05:28:34.043Z,1014.55
2018-08-20T05:29:43.447Z,1014.52
2018-08-20T05:30:52.663Z,1014.56
2018-08-20T05:32:01.888Z,1014.57
2018-08-20T05:33:11.226Z,1014.55
2018-08-20T05:34:21.039Z,1014.53
2018-08-20T05:35:30.130Z,1014.52
2018-08-20T05:36:39.767Z,1014.51
2018-08-20T05:37:49.306Z,1014.51
2018-08-20T05:38:59.093Z,1014.55
2018-08-20T05:40:08.480Z,1014.58
2018-08-20T05:41:17.962Z,1014.59
2018-08-20T05:42:27.018Z,1014.56
2018-08-20T05:43:37.153Z,1014.6
2018-08-20T05:44:46.295Z,1014.58
2018-08-20T05:45:55.443Z,1014.61
2018-08-20T05:47:04.988Z,1014.61
2018-08-20T05:48:14.775Z,1014.58
2018-08-20T05:49:24.633Z,1014.61
2018-08-20T05:50:34.059Z,1014.58
2018-08-20T05:51:43.113Z,1014.57
2018-08-20T05:52:52.921Z,1014.63
2018-08-20T05:54:02.240Z,1014.6
2018-08-20T05:55:12.105Z,1014.61
2018-08-20T05:56:21.522Z,1014.65
2018-08-20T05:57:30.949Z,1014.66
2018-08-20T05:58:40.591Z,1014.67
2018-08-20T05:59:49.969Z,1014.64
2018-08-20T06:00:59.827Z,1014.65
2018-08-20T06:02:09.025Z,1014.64
2018-08-20T06:03:18.175Z,1014.65
2018-08-20T06:04:27.851Z,1014.64
2018-08-20T06:05:38.251Z,1014.64
2018-08-20T06:06:47.462Z,1014.68
2018-08-20T06:07:56.901Z,1014.66
2018-08-20T06:09:06.731Z,1014.66
2018-08-20T06:10:16.292Z,1014.61
2018-08-20T06:11:28.732Z,1014.68
2018-08-20T06:12:39.623Z,1014.69
2018-08-20T06:13:49.091Z,1014.73
2018-08-20T06:14:58.654Z,1014.74
2018-08-20T06:16:08.870Z,1014.77
2018-08-20T06:17:18.204Z,1014.79
2018-08-20T06:18:28.210Z,1014.82
2018-08-20T06:19:37.973Z,1014.81
2018-08-20T06:20:47.356Z,1014.84
2018-08-20T06:21:57.175Z,1014.83
2018-08-20T06:23:06.427Z,1014.85
2018-08-20T06:24:15.746Z,1014.84
2018-08-20T06:25:24.627Z,1014.87
2018-08-20T06:26:33.685Z,1014.86
2018-08-20T06:27:42.784Z,1014.85
2018-08-20T06:28:52.667Z,1014.85
2018-08-20T06:30:02.053Z,1014.89
2018-08-20T06:31:11.630Z,1014.89
2018-08-20T06:32:20.676Z,1014.89
2018-08-20T06:33:30.587Z,1014.88
2018-08-20T06:34:39.401Z,1014.92
2018-08-20T06:35:48.833Z,1014.92
2018-08-20T06:36:57.971Z,1014.96
2018-08-20T06:38:07.980Z,1014.96
2018-08-20T06:39:17.519Z,1014.98
2018-08-20T06:40:27.611Z,1014.98
2018-08-20T06:41:36.951Z,1014.99
2018-08-20T06:42:45.855Z,1014.98
2018-08-20T06:43:55.235Z,1014.97
2018-08-20T06:45:04.964Z,1014.97
2018-08-20T06:46:14.305Z,1014.97
2018-08-20T06:47:23.657Z,1014.97
2018-08-20T06:48:33.855Z,1014.93
2018-08-20T06:49:42.928Z,1014.92
2018-08-20T06:50:52.306Z,1014.97
2018-08-20T06:52:01.653Z,1014.97
2018-08-20T06:53:11.495Z,1014.93
2018-08-20T06:54:20.919Z,1014.97
2018-08-20T06:55:30.345Z,1014.97
2018-08-20T06:56:39.877Z,1014.97
2018-08-20T06:57:49.290Z,1014.99
2018-08-20T06:58:58.860Z,1014.96
2018-08-20T07:00:08.418Z,1015
2018-08-20T07:01:17.975Z,1015.04
2018-08-20T07:02:27.929Z,1015.09
2018-08-20T07:03:37.388Z,1015.15
2018-08-20T07:04:46.445Z,1015.15
2018-08-20T07:05:55.796Z,1015.17
2018-08-20T07:07:05.182Z,1015.18
2018-08-20T07:08:15.120Z,1015.19
2018-08-20T07:09:24.580Z,1015.16
2018-08-20T07:10:33.983Z,1015.16
2018-08-20T07:11:43.860Z,1015.22
2018-08-20T07:12:53.093Z,1015.25
2018-08-20T07:14:02.695Z,1015.24
2018-08-20T07:15:12.355Z,1015.27
2018-08-20T07:16:21.927Z,1015.24
2018-08-20T07:17:31.758Z,1015.25
2018-08-20T07:18:41.508Z,1015.23
2018-08-20T07:19:50.556Z,1015.21
2018-08-20T07:21:00.455Z,1015.27
2018-08-20T07:22:09.575Z,1015.27
2018-08-20T07:23:19.139Z,1015.27
2018-08-20T07:24:30.497Z,1015.26
2018-08-20T07:25:41.031Z,1015.31
2018-08-20T07:26:52.160Z,1015.33
2018-08-20T07:28:01.484Z,1015.32
2018-08-20T07:29:10.542Z,1015.35
2018-08-20T07:30:19.672Z,1015.36
2018-08-20T07:31:29.198Z,1015.33
2018-08-20T07:32:39.153Z,1015.31
2018-08-20T07:33:48.828Z,1015.32
2018-08-20T07:34:58.154Z,1015.35
2018-08-20T07:36:08.335Z,1015.34
2018-08-20T07:37:18.207Z,1015.34
2018-08-20T07:38:28.134Z,1015.33
2018-08-20T07:39:37.431Z,1015.35
2018-08-20T07:40:46.796Z,1015.35
2018-08-20T07:41:56.048Z,1015.33
2018-08-20T07:43:05.243Z,1015.37
2018-08-20T07:44:14.599Z,1015.4
2018-08-20T07:45:23.896Z,1015.34
2018-08-20T07:46:33.425Z,1015.37
2018-08-20T07:47:43.259Z,1015.38
2018-08-20T07:48:52.790Z,1015.4
2018-08-20T07:50:02.455Z,1015.39
2018-08-20T07:51:12.046Z,1015.41
2018-08-20T07:52:21.619Z,1015.39
2018-08-20T07:53:30.987Z,1015.37
2018-08-20T07:54:40.847Z,1015.37
2018-08-20T07:55:49.885Z,1015.41
2018-08-20T07:56:59.433Z,1015.34
2018-08-20T07:58:09.068Z,1015.39
2018-08-20T07:59:18.335Z,1015.37
2018-08-20T08:00:27.610Z,1015.37
2018-08-20T08:01:37.130Z,1015.36
2018-08-20T08:02:47.734Z,1015.32
2018-08-20T08:03:57.498Z,1015.34
2018-08-20T08:05:06.876Z,1015.35
2018-08-20T08:06:16.148Z,1015.34
2018-08-20T08:07:25.284Z,1015.38
2018-08-20T08:08:34.866Z,1015.38
2018-08-20T08:09:45.470Z,1015.42
2018-08-20T08:10:54.534Z,1015.39
2018-08-20T08:12:03.847Z,1015.42
2018-08-20T08:13:13.163Z,1015.42
2018-08-20T08:14:22.762Z,1015.42
2018-08-20T08:15:32.209Z,1015.43
2018-08-20T08:16:42.274Z,1015.42
2018-08-20T08:17:51.919Z,1015.42
2018-08-20T08:19:01.201Z,1015.45
2018-08-20T08:20:10.537Z,1015.43
2018-08-20T08:21:19.477Z,1015.46
2018-08-20T08:22:29.299Z,1015.44
2018-08-20T08:23:38.841Z,1015.5
2018-08-20T08:24:47.871Z,1015.49
2018-08-20T08:25:57.447Z,1015.46
2018-08-20T08:27:06.730Z,1015.44
2018-08-20T08:28:16.268Z,1015.44
2018-08-20T08:29:25.587Z,1015.42
2018-08-20T08:30:34.682Z,1015.45
2018-08-20T08:31:43.955Z,1015.5
2018-08-20T08:32:53.490Z,1015.51
2018-08-20T08:34:02.845Z,1015.59
2018-08-20T08:35:11.978Z,1015.52
2018-08-20T08:36:21.264Z,1015.56
2018-08-20T08:37:31.453Z,1015.58
2018-08-20T08:38:40.786Z,1015.57
2018-08-20T08:39:50.088Z,1015.55
2018-08-20T08:40:59.647Z,1015.59
2018-08-20T08:42:09.014Z,1015.62
2018-08-20T08:43:18.591Z,1015.63
2018-08-20T08:44:27.914Z,1015.61
2018-08-20T08:45:37.449Z,1015.6
2018-08-20T08:46:46.713Z,1015.6
2018-08-20T08:47:56.404Z,1015.61
2018-08-20T08:49:06.660Z,1015.62
2018-08-20T08:50:16.573Z,1015.6
2018-08-20T08:51:25.900Z,1015.59
2018-08-20T08:52:35.241Z,1015.59
2018-08-20T08:53:44.811Z,1015.61
2018-08-20T08:54:54.097Z,1015.57
2018-08-20T08:56:04.349Z,1015.58
2018-08-20T08:57:13.620Z,1015.56
2018-08-20T08:58:22.937Z,1015.6
2018-08-20T08:59:32.518Z,1015.6
2018-08-20T09:00:42.163Z,1015.61
2018-08-20T09:01:51.898Z,1015.61
2018-08-20T09:03:01.171Z,1015.58
2018-08-20T09:04:10.483Z,1015.62
2018-08-20T09:05:19.271Z,1015.64
2018-08-20T09:06:28.656Z,1015.65
2018-08-20T09:07:38.475Z,1015.66
2018-08-20T09:08:47.998Z,1015.69
2018-08-20T09:09:57.585Z,1015.68
2018-08-20T09:11:07.153Z,1015.69
2018-08-20T09:12:16.694Z,1015.69
2018-08-20T09:13:26.024Z,1015.67
2018-08-20T09:14:35.276Z,1015.68
2018-08-20T09:15:44.855Z,1015.71
2018-08-20T09:16:54.662Z,1015.66
2018-08-20T09:18:03.921Z,1015.62
2018-08-20T09:19:13.729Z,1015.67
2018-08-20T09:20:22.966Z,1015.62
2018-08-20T09:21:32.911Z,1015.68
2018-08-20T09:22:42.594Z,1015.7
2018-08-20T09:23:51.919Z,1015.71
2018-08-20T09:25:02.093Z,1015.74
2018-08-20T09:26:12.118Z,1015.75
2018-08-20T09:27:21.384Z,1015.76
2018-08-20T09:28:30.408Z,1015.78
2018-08-20T09:29:39.861Z,1015.78
2018-08-20T09:30:49.432Z,1015.77
2018-08-20T09:31:58.508Z,1015.82
2018-08-20T09:33:07.533Z,1015.82
2018-08-20T09:34:16.797Z,1015.81
2018-08-20T09:35:26.059Z,1015.8
2018-08-20T09:36:35.640Z,1015.78
2018-08-20T09:37:44.656Z,1015.79
2018-08-20T09:38:54.296Z,1015.8
2018-08-20T09:40:03.099Z,1015.78
2018-08-20T09:41:11.869Z,1015.79
2018-08-20T09:42:20.674Z,1015.8
2018-08-20T09:43:29.963Z,1015.77
2018-08-20T09:44:39.560Z,1015.8
2018-08-20T09:45:49.354Z,1015.79
2018-08-20T09:46:58.370Z,1015.76
2018-08-20T09:48:07.706Z,1015.73
2018-08-20T09:49:17.210Z,1015.75
2018-08-20T09:50:26.725Z,1015.73
2018-08-20T09:51:35.996Z,1015.75
2018-08-20T09:52:44.806Z,1015.75
2018-08-20T09:53:54.403Z,1015.71
2018-08-20T09:55:03.439Z,1015.72
2018-08-20T09:56:13.498Z,1015.74
2018-08-20T09:57:23.094Z,1015.75
2018-08-20T09:58:32.298Z,1015.74
2018-08-20T09:59:41.573Z,1015.79
2018-08-20T10:00:50.454Z,1015.81
2018-08-20T10:01:59.961Z,1015.78
2018-08-20T10:03:09.796Z,1015.8
2018-08-20T10:04:19.116Z,1015.78
2018-08-20T10:05:28.185Z,1015.77
2018-08-20T10:06:37.818Z,1015.78
2018-08-20T10:07:47.368Z,1015.76
2018-08-20T10:08:56.899Z,1015.76
2018-08-20T10:10:06.522Z,1015.77
2018-08-20T10:11:15.880Z,1015.75
2018-08-20T10:12:25.687Z,1015.76
2018-08-20T10:13:34.663Z,1015.73
2018-08-20T10:14:44.283Z,1015.75
2018-08-20T10:15:53.814Z,1015.75
2018-08-20T10:17:03.350Z,1015.77
2018-08-20T10:18:12.495Z,1015.79
2018-08-20T10:19:21.558Z,1015.78
2018-08-20T10:20:30.605Z,1015.79
2018-08-20T10:21:40.261Z,1015.8
2018-08-20T10:22:49.754Z,1015.79
2018-08-20T10:23:59.609Z,1015.78
2018-08-20T10:25:09.146Z,1015.75
2018-08-20T10:26:18.400Z,1015.83
2018-08-20T10:27:28.200Z,1015.77
2018-08-20T10:28:36.996Z,1015.81
2018-08-20T10:29:46.339Z,1015.85
2018-08-20T10:30:55.886Z,1015.85
2018-08-20T10:32:04.928Z,1015.84
2018-08-20T10:33:14.955Z,1015.86
2018-08-20T10:34:24.464Z,1015.85
2018-08-20T10:35:33.482Z,1015.86
2018-08-20T10:36:42.531Z,1015.87
2018-08-20T10:37:51.965Z,1015.85
2018-08-20T10:39:01.525Z,1015.87
2018-08-20T10:40:11.696Z,1015.87
2018-08-20T10:41:21.231Z,1015.86
2018-08-20T10:42:30.512Z,1015.85
2018-08-20T10:43:40.616Z,1015.88
2018-08-20T10:44:50.790Z,1015.9
2018-08-20T10:46:00.255Z,1015.9
2018-08-20T10:47:09.693Z,1015.82
2018-08-20T10:48:19.295Z,1015.86
2018-08-20T10:49:28.905Z,1015.87
2018-08-20T10:50:38.511Z,1015.83
2018-08-20T10:51:47.930Z,1015.87
2018-08-20T10:52:57.038Z,1015.87
2018-08-20T10:54:06.814Z,1015.84
2018-08-20T10:55:15.991Z,1015.83
2018-08-20T10:56:25.709Z,1015.86
2018-08-20T10:57:35.366Z,1015.85
2018-08-20T10:58:44.921Z,1015.87
2018-08-20T10:59:54.447Z,1015.89
2018-08-20T11:01:03.811Z,1015.87
2018-08-20T11:02:13.123Z,1015.87
2018-08-20T11:03:22.089Z,1015.92
2018-08-20T11:04:31.602Z,1015.9
2018-08-20T11:05:40.694Z,1015.91
2018-08-20T11:06:50.486Z,1015.93
2018-08-20T11:08:00.010Z,1015.97
2018-08-20T11:09:09.075Z,1015.95
2018-08-20T11:10:18.464Z,1015.96
2018-08-20T11:11:28.388Z,1015.96
2018-08-20T11:12:37.748Z,1015.95
2018-08-20T11:13:47.233Z,1015.98
2018-08-20T11:14:56.488Z,1015.96
2018-08-20T11:16:06.544Z,1015.95
2018-08-20T11:17:15.816Z,1015.94
2018-08-20T11:18:25.188Z,1015.94
2018-08-20T11:19:35.516Z,1015.96
2018-08-20T11:20:45.312Z,1015.96
2018-08-20T11:21:54.812Z,1016
2018-08-20T11:23:04.137Z,1015.98
2018-08-20T11:24:13.359Z,1015.98
2018-08-20T11:25:22.663Z,1015.99
2018-08-20T11:26:32.438Z,1015.96
2018-08-20T11:27:42.981Z,1015.93
2018-08-20T11:28:52.112Z,1015.97
2018-08-20T11:30:01.736Z,1015.94
2018-08-20T11:31:11.338Z,1015.96
2018-08-20T11:32:21.522Z,1015.98
2018-08-20T11:33:31.128Z,1015.96
2018-08-20T11:34:40.778Z,1015.92
2018-08-20T11:35:50.610Z,1015.93
2018-08-20T11:37:00.447Z,1015.93
2018-08-20T11:38:09.702Z,1015.94
2018-08-20T11:39:19.181Z,1015.92
2018-08-20T11:40:28.737Z,1015.93
2018-08-20T11:41:38.553Z,1015.92
2018-08-20T11:42:48.234Z,1015.91
2018-08-20T11:43:57.704Z,1015.92
2018-08-20T11:45:07.377Z,1015.88
2018-08-20T11:46:17.256Z,1015.88
2018-08-20T11:47:27.130Z,1015.87
2018-08-20T11:48:36.401Z,1015.88
2018-08-20T11:49:46.015Z,1015.86
2018-08-20T11:50:55.030Z,1015.88
2018-08-20T11:52:05.170Z,1015.89
2018-08-20T11:53:14.554Z,1015.87
2018-08-20T11:54:24.046Z,1015.84
2018-08-20T11:55:33.641Z,1015.85
2018-08-20T11:56:43.776Z,1015.85
2018-08-20T11:57:55.348Z,1015.85
2018-08-20T11:59:04.211Z,1015.83
2018-08-20T12:00:13.459Z,1015.85
2018-08-20T12:01:22.706Z,1015.84
2018-08-20T12:02:32.330Z,1015.84
2018-08-20T12:03:41.514Z,1015.82
2018-08-20T12:04:50.841Z,1015.86
2018-08-20T12:06:00.160Z,1015.83
2018-08-20T12:07:09.402Z,1015.82
2018-08-20T12:08:19.482Z,1015.85
2018-08-20T12:09:28.863Z,1015.84
2018-08-20T12:10:38.650Z,1015.8
2018-08-20T12:11:48.027Z,1015.8
2018-08-20T12:12:56.855Z,1015.76
2018-08-20T12:14:05.928Z,1015.77
2018-08-20T12:15:15.970Z,1015.75
2018-08-20T12:16:25.289Z,1015.76
2018-08-20T12:17:34.315Z,1015.74
2018-08-20T12:18:43.654Z,1015.79
2018-08-20T12:19:52.992Z,1015.74
2018-08-20T12:21:02.530Z,1015.8
2018-08-20T12:22:11.878Z,1015.81
2018-08-20T12:23:21.918Z,1015.74
2018-08-20T12:24:31.493Z,1015.71
2018-08-20T12:25:40.808Z,1015.75
2018-08-20T12:26:50.633Z,1015.73
2018-08-20T12:27:59.858Z,1015.75
2018-08-20T12:29:09.521Z,1015.71
2018-08-20T12:30:19.321Z,1015.74
2018-08-20T12:31:28.653Z,1015.73
2018-08-20T12:32:37.426Z,1015.74
2018-08-20T12:33:46.504Z,1015.71
2018-08-20T12:34:55.867Z,1015.69
2018-08-20T12:36:06.046Z,1015.69
2018-08-20T12:37:18.473Z,1015.68
2018-08-20T12:38:28.296Z,1015.72
2018-08-20T12:39:37.771Z,1015.69
2018-08-20T12:40:47.348Z,1015.7
2018-08-20T12:41:56.981Z,1015.71
2018-08-20T12:43:06.453Z,1015.71
2018-08-20T12:44:16.215Z,1015.69
2018-08-20T12:45:25.982Z,1015.72
2018-08-20T12:46:35.267Z,1015.7
2018-08-20T12:47:45.050Z,1015.71
2018-08-20T12:48:53.905Z,1015.7
2018-08-20T12:50:03.173Z,1015.69
2018-08-20T12:51:12.862Z,1015.76
2018-08-20T12:52:22.139Z,1015.72
2018-08-20T12:53:31.517Z,1015.72
2018-08-20T12:54:40.813Z,1015.76
2018-08-20T12:55:50.102Z,1015.7
2018-08-20T12:56:59.399Z,1015.71
2018-08-20T12:58:08.669Z,1015.71
2018-08-20T12:59:18.107Z,1015.69
2018-08-20T13:00:27.154Z,1015.71
2018-08-20T13:01:37.353Z,1015.67
2018-08-20T13:02:46.689Z,1015.67
2018-08-20T13:03:56.461Z,1015.71
2018-08-20T13:05:05.735Z,1015.69
2018-08-20T13:06:15.358Z,1015.68
2018-08-20T13:07:25.202Z,1015.69
2018-08-20T13:08:34.795Z,1015.66
2018-08-20T13:09:44.439Z,1015.62
2018-08-20T13:10:53.469Z,1015.65
2018-08-20T13:12:02.737Z,1015.64
2018-08-20T13:13:12.008Z,1015.65
2018-08-20T13:14:21.588Z,1015.64
2018-08-20T13:15:30.910Z,1015.63
2018-08-20T13:16:40.238Z,1015.62
2018-08-20T13:17:49.532Z,1015.62
2018-08-20T13:18:59.129Z,1015.64
2018-08-20T13:20:08.421Z,1015.63
2018-08-20T13:21:17.692Z,1015.63
2018-08-20T13:22:27.421Z,1015.61
2018-08-20T13:23:36.976Z,1015.57
2018-08-20T13:24:46.911Z,1015.62
2018-08-20T13:25:56.711Z,1015.59
2018-08-20T13:27:05.532Z,1015.57
2018-08-20T13:28:15.404Z,1015.59
2018-08-20T13:29:24.222Z,1015.58
2018-08-20T13:30:34.497Z,1015.55
2018-08-20T13:31:44.309Z,1015.51
2018-08-20T13:32:54.154Z,1015.5
2018-08-20T13:34:03.277Z,1015.45
2018-08-20T13:35:12.837Z,1015.46
2018-08-20T13:36:22.376Z,1015.44
2018-08-20T13:37:31.937Z,1015.44
2018-08-20T13:38:41.495Z,1015.42
2018-08-20T13:39:51.327Z,1015.41
2018-08-20T13:41:00.630Z,1015.4
2018-08-20T13:42:09.673Z,1015.39
2018-08-20T13:43:19.514Z,1015.34
2018-08-20T13:44:28.608Z,1015.36
2018-08-20T13:45:38.146Z,1015.36
2018-08-20T13:46:47.938Z,1015.38
2018-08-20T13:47:56.985Z,1015.37
2018-08-20T13:49:06.259Z,1015.34
2018-08-20T13:50:15.896Z,1015.36
2018-08-20T13:51:24.952Z,1015.37
2018-08-20T13:52:34.281Z,1015.38
2018-08-20T13:53:43.675Z,1015.36
2018-08-20T13:54:53.588Z,1015.31
2018-08-20T13:56:02.683Z,1015.34
2018-08-20T13:57:12.000Z,1015.32
2018-08-20T13:58:21.340Z,1015.32
2018-08-20T13:59:31.236Z,1015.35
2018-08-20T14:00:40.794Z,1015.32
2018-08-20T14:01:50.156Z,1015.32